createdAt,value
2022-09-17T00:01:23.098Z,0.70
2022-09-17T00:03:53.616Z,0.70
2022-09-17T00:06:24.137Z,0.63
2022-09-17T00:08:52.366Z,0.70
2022-09-17T00:11:22.326Z,0.60
2022-09-17T00:13:51.352Z,0.70
2022-09-17T00:16:30.227Z,0.70
2022-09-17T00:18:59.186Z,0.67
2022-09-17T00:21:29.042Z,0.57
2022-09-17T00:23:58.389Z,0.60
2022-09-17T00:26:27.004Z,0.70
2022-09-17T00:28:56.432Z,0.70
2022-09-17T00:31:24.896Z,0.70
2022-09-17T00:33:54.127Z,0.90
2022-09-17T00:36:23.001Z,0.60
2022-09-17T00:38:53.066Z,0.60
2022-09-17T00:41:22.076Z,0.70
2022-09-17T00:43:53.147Z,0.70
2022-09-17T00:46:31.692Z,0.70
2022-09-17T00:49:02.729Z,0.80
2022-09-17T00:51:35.707Z,0.80
2022-09-17T00:54:09.073Z,0.60
2022-09-17T00:56:39.415Z,0.60
2022-09-17T00:59:08.200Z,0.70
2022-09-17T01:01:36.639Z,0.60
2022-09-17T01:04:04.963Z,0.67
2022-09-17T01:06:35.903Z,0.60
2022-09-17T01:09:28.731Z,0.60
2022-09-17T01:12:14.744Z,0.60
2022-09-17T01:14:56.526Z,0.63
2022-09-17T01:17:32.050Z,0.70
2022-09-17T01:20:37.025Z,0.60
2022-09-17T01:23:29.346Z,0.60
2022-09-17T01:26:11.736Z,0.60
2022-09-17T01:28:46.345Z,0.60
2022-09-17T01:31:33.695Z,0.70
2022-09-17T01:34:06.598Z,0.70
2022-09-17T01:36:48.264Z,0.73
2022-09-17T01:39:28.418Z,0.60
2022-09-17T01:42:00.286Z,0.70
2022-09-17T01:44:32.707Z,0.73
2022-09-17T01:47:10.376Z,0.80
2022-09-17T01:49:40.551Z,0.70
2022-09-17T01:52:10.822Z,0.73
2022-09-17T01:54:43.963Z,0.70
2022-09-17T01:57:17.040Z,0.70
2022-09-17T01:59:50.428Z,0.80
2022-09-17T02:02:27.530Z,0.60
2022-09-17T02:05:00.616Z,0.60
2022-09-17T02:07:30.405Z,0.73
2022-09-17T02:10:03.682Z,0.90
2022-09-17T02:12:36.853Z,0.70
2022-09-17T02:15:11.825Z,0.67
2022-09-17T02:17:45.909Z,0.70
2022-09-17T02:20:14.312Z,0.80
2022-09-17T02:22:46.881Z,0.70
2022-09-17T02:25:21.225Z,0.70
2022-09-17T02:27:58.809Z,0.70
2022-09-17T02:30:26.707Z,0.70
2022-09-17T02:32:56.613Z,0.80
2022-09-17T02:35:24.976Z,0.90
2022-09-17T02:37:53.252Z,1.00
2022-09-17T02:40:27.833Z,0.67
2022-09-17T02:43:09.410Z,0.80
2022-09-17T02:45:53.025Z,0.80
2022-09-17T02:48:35.042Z,0.80
2022-09-17T02:51:16.492Z,0.90
2022-09-17T02:53:57.527Z,0.70
2022-09-17T02:56:38.703Z,0.70
2022-09-17T02:59:16.527Z,0.80
2022-09-17T03:01:50.062Z,0.70
2022-09-17T03:04:22.417Z,0.90
2022-09-17T03:06:52.912Z,0.70
2022-09-17T03:09:20.997Z,1.20
2022-09-17T03:11:48.842Z,1.03
2022-09-17T03:14:16.670Z,0.80
2022-09-17T03:16:44.495Z,0.80
2022-09-17T03:19:12.315Z,0.83
2022-09-17T03:21:41.513Z,0.83
2022-09-17T03:24:10.887Z,1.00
2022-09-17T03:26:38.862Z,0.90
2022-09-17T03:29:06.860Z,0.77
2022-09-17T03:31:34.775Z,0.80
2022-09-17T03:34:02.664Z,0.90
2022-09-17T03:36:30.611Z,0.80
2022-09-17T03:39:00.229Z,0.97
2022-09-17T03:41:28.333Z,0.97
2022-09-17T03:43:56.255Z,0.87
2022-09-17T03:46:24.189Z,0.90
2022-09-17T03:48:52.198Z,0.87
2022-09-17T03:51:20.043Z,0.80
2022-09-17T03:53:47.879Z,0.90
2022-09-17T03:56:17.807Z,0.90
2022-09-17T03:58:45.909Z,0.70
2022-09-17T04:01:13.930Z,0.80
2022-09-17T04:03:42.116Z,0.93
2022-09-17T04:06:10.083Z,0.90
2022-09-17T04:08:37.956Z,1.00
2022-09-17T04:11:07.724Z,0.87
2022-09-17T04:13:37.294Z,1.00
2022-09-17T04:16:05.582Z,0.93
2022-09-17T04:18:33.464Z,1.00
2022-09-17T04:21:01.357Z,0.97
2022-09-17T04:23:29.218Z,0.73
2022-09-17T04:25:57.034Z,1.00
2022-09-17T04:28:24.900Z,0.90
2022-09-17T04:30:54.209Z,0.87
2022-09-17T04:33:22.347Z,1.00
2022-09-17T04:35:50.249Z,1.00
2022-09-17T04:38:20.485Z,0.90
2022-09-17T04:40:48.287Z,0.90
2022-09-17T04:43:16.376Z,0.90
2022-09-17T04:45:47.019Z,0.90
2022-09-17T04:48:16.214Z,1.07
2022-09-17T04:50:44.039Z,0.90
2022-09-17T04:53:12.671Z,0.70
2022-09-17T04:55:40.699Z,0.90
2022-09-17T04:58:08.560Z,0.80
2022-09-17T05:00:36.681Z,1.07
2022-09-17T05:03:05.068Z,1.00
2022-09-17T05:05:34.504Z,1.00
2022-09-17T05:08:02.768Z,0.90
2022-09-17T05:10:30.828Z,1.10
2022-09-17T05:12:58.775Z,1.00
2022-09-17T05:15:27.737Z,1.00
2022-09-17T05:17:55.658Z,1.50
2022-09-17T05:20:23.559Z,0.93
2022-09-17T05:22:53.689Z,1.00
2022-09-17T05:25:23.991Z,1.10
2022-09-17T05:27:52.461Z,0.87
2022-09-17T05:30:20.687Z,1.00
2022-09-17T05:32:48.622Z,1.57
2022-09-17T05:35:16.731Z,0.97
2022-09-17T05:37:44.598Z,1.07
2022-09-17T05:40:14.034Z,1.20
2022-09-17T05:42:41.909Z,1.03
2022-09-17T05:45:10.315Z,0.80
2022-09-17T05:47:38.152Z,0.80
2022-09-17T05:50:06.665Z,1.10
2022-09-17T05:52:34.642Z,0.80
2022-09-17T05:55:02.521Z,1.00
2022-09-17T05:57:31.774Z,1.20
2022-09-17T05:59:59.609Z,1.00
2022-09-17T06:02:27.448Z,1.00
2022-09-17T06:04:55.919Z,1.13
2022-09-17T06:07:23.765Z,1.00
2022-09-17T06:09:51.605Z,1.00
2022-09-17T06:12:19.692Z,1.10
2022-09-17T06:14:48.967Z,1.10
2022-09-17T06:17:20.263Z,1.17
2022-09-17T06:19:50.054Z,0.90
2022-09-17T06:22:19.987Z,1.10
2022-09-17T06:24:48.208Z,0.90
2022-09-17T06:27:16.093Z,1.10
2022-09-17T06:29:43.948Z,1.17
2022-09-17T06:32:15.546Z,2.63
2022-09-17T06:34:43.858Z,1.40
2022-09-17T06:37:11.869Z,1.30
2022-09-17T06:39:40.059Z,1.10
2022-09-17T06:42:08.183Z,1.43
2022-09-17T06:44:36.122Z,1.10
2022-09-17T06:47:03.989Z,1.00
2022-09-17T06:49:33.238Z,1.10
2022-09-17T06:52:01.666Z,1.27
2022-09-17T06:54:29.510Z,1.40
2022-09-17T06:56:57.413Z,1.30
2022-09-17T06:59:26.634Z,2.10
2022-09-17T07:01:54.620Z,2.17
2022-09-17T07:04:22.517Z,1.70
2022-09-17T07:06:51.758Z,1.03
2022-09-17T07:09:19.653Z,1.10
2022-09-17T07:11:47.514Z,1.10
2022-09-17T07:14:15.343Z,1.43
2022-09-17T07:16:43.172Z,1.10
2022-09-17T07:19:11.296Z,1.20
2022-09-17T07:21:42.084Z,1.27
2022-09-17T07:24:11.447Z,1.17
2022-09-17T07:26:39.303Z,1.20
2022-09-17T07:29:07.906Z,1.10
2022-09-17T07:31:35.816Z,1.23
2022-09-17T07:34:03.744Z,1.07
2022-09-17T07:36:31.576Z,1.20
2022-09-17T07:39:12.107Z,2.00
2022-09-17T07:41:41.313Z,1.77
2022-09-17T07:44:09.781Z,1.20
2022-09-17T07:46:37.772Z,1.20
2022-09-17T07:49:05.719Z,1.63
2022-09-17T07:51:33.961Z,1.10
2022-09-17T07:54:02.269Z,1.33
2022-09-17T07:56:30.629Z,1.10
2022-09-17T07:58:59.916Z,1.47
2022-09-17T08:01:27.944Z,1.07
2022-09-17T08:03:56.140Z,1.40
2022-09-17T08:06:27.978Z,3.17
2022-09-17T08:08:56.554Z,3.37
2022-09-17T08:14:16.800Z,1.40
2022-09-17T08:16:45.586Z,1.23
2022-09-17T08:19:13.438Z,1.20
2022-09-17T08:21:41.381Z,1.30
2022-09-17T08:24:09.735Z,1.20
2022-09-17T08:26:39.024Z,1.40
2022-09-17T08:29:07.346Z,1.40
2022-09-17T08:31:36.993Z,1.30
2022-09-17T08:34:09.239Z,1.00
2022-09-17T08:36:37.507Z,1.33
2022-09-17T08:39:05.637Z,1.30
2022-09-17T08:41:46.208Z,1.20
2022-09-17T08:44:23.893Z,1.23
2022-09-17T08:46:58.889Z,1.67
2022-09-17T08:49:33.243Z,1.40
2022-09-17T08:52:27.982Z,1.60
2022-09-17T08:55:03.929Z,1.20
2022-09-17T08:57:40.745Z,1.30
2022-09-17T09:00:13.090Z,1.20
2022-09-17T09:03:00.101Z,1.33
2022-09-17T09:05:33.151Z,1.53
2022-09-17T09:08:07.555Z,1.33
2022-09-17T09:10:46.265Z,1.70
2022-09-17T09:13:17.435Z,1.80
2022-09-17T09:15:48.432Z,1.70
2022-09-17T09:18:20.988Z,1.70
2022-09-17T09:20:55.645Z,1.53
2022-09-17T09:23:32.088Z,1.30
2022-09-17T09:26:11.728Z,1.45
2022-09-17T09:28:52.293Z,1.40
2022-09-17T09:31:35.634Z,1.70
2022-09-17T09:34:06.076Z,1.60
2022-09-17T09:36:34.888Z,1.67
2022-09-17T09:39:08.835Z,1.30
2022-09-17T09:41:44.867Z,1.60
2022-09-17T09:44:15.442Z,1.60
2022-09-17T09:46:55.180Z,1.93
2022-09-17T09:49:37.329Z,1.57
2022-09-17T09:52:18.297Z,1.70
2022-09-17T09:55:03.747Z,1.60
2022-09-17T09:57:40.754Z,1.70
2022-09-17T10:00:30.650Z,1.83
2022-09-17T10:03:04.082Z,1.60
2022-09-17T10:05:33.531Z,1.30
2022-09-17T10:08:01.890Z,1.70
2022-09-17T10:10:29.752Z,2.90
2022-09-17T10:13:08.074Z,1.60
2022-09-17T10:15:35.968Z,2.30
2022-09-17T10:18:17.294Z,1.80
2022-09-17T10:20:57.861Z,1.83
2022-09-17T10:23:28.687Z,1.30
2022-09-17T10:25:57.606Z,1.20
2022-09-17T10:28:38.803Z,1.40
2022-09-17T10:31:10.678Z,1.40
2022-09-17T10:33:52.309Z,1.57
2022-09-17T10:36:39.572Z,1.37
2022-09-17T10:39:30.065Z,3.67
2022-09-17T10:41:58.993Z,2.33
2022-09-17T10:44:28.323Z,1.40
2022-09-17T10:47:02.656Z,1.30
2022-09-17T10:49:42.112Z,1.23
2022-09-17T10:52:15.564Z,1.40
2022-09-17T10:55:13.577Z,1.20
2022-09-17T10:58:10.159Z,1.33
2022-09-17T11:00:49.386Z,2.00
2022-09-17T11:03:50.065Z,1.33
2022-09-17T11:06:34.911Z,1.40
2022-09-17T11:09:14.345Z,1.50
2022-09-17T11:11:53.243Z,1.50
2022-09-17T11:14:41.574Z,1.40
2022-09-17T11:17:20.941Z,1.40
2022-09-17T11:19:55.344Z,1.47
2022-09-17T11:22:30.017Z,1.20
2022-09-17T11:25:15.359Z,1.23
2022-09-17T11:28:05.509Z,0.97
2022-09-17T11:30:45.025Z,1.10
2022-09-17T11:33:34.733Z,1.13
2022-09-17T11:36:10.864Z,1.47
2022-09-17T11:38:44.256Z,1.80
2022-09-17T11:41:18.320Z,1.43
2022-09-17T11:43:50.182Z,1.10
2022-09-17T11:46:22.706Z,1.17
2022-09-17T11:48:56.772Z,1.40
2022-09-17T11:51:31.676Z,1.00
2022-09-17T11:54:05.048Z,1.00
2022-09-17T11:56:39.642Z,0.70
2022-09-17T11:59:15.784Z,0.60
2022-09-17T12:02:00.193Z,0.60
2022-09-17T12:04:40.590Z,0.90
2022-09-17T12:07:18.902Z,0.73
2022-09-17T12:09:52.808Z,0.65
2022-09-17T12:25:21.065Z,0.53
2022-09-17T12:27:57.437Z,0.80
2022-09-17T12:33:13.126Z,1.00
2022-09-17T12:36:05.003Z,1.00
2022-09-17T12:49:23.893Z,0.90
2022-09-17T12:51:58.505Z,2.17
2022-09-17T12:57:12.475Z,1.00
2022-09-17T12:59:51.073Z,0.90
2022-09-17T13:05:25.215Z,0.80
2022-09-17T13:10:42.213Z,0.90
2022-09-17T13:13:24.982Z,0.70
2022-09-17T13:18:32.783Z,1.00
2022-09-17T13:26:09.185Z,0.70
2022-09-17T13:28:47.263Z,1.40
2022-09-17T13:31:22.730Z,0.80
2022-09-17T13:33:59.360Z,0.70
2022-09-17T13:36:46.709Z,0.97
2022-09-17T13:39:43.538Z,0.70
2022-09-17T13:42:18.356Z,0.70
2022-09-17T13:44:51.293Z,0.70
2022-09-17T13:47:28.220Z,0.60
2022-09-17T13:50:00.331Z,0.70
2022-09-17T13:52:37.337Z,0.80
2022-09-17T13:55:06.658Z,0.60
2022-09-17T13:57:47.013Z,0.73
2022-09-17T14:00:45.174Z,1.03
2022-09-17T14:03:52.666Z,1.80
2022-09-17T14:06:50.255Z,0.80
2022-09-17T14:09:39.357Z,0.60
2022-09-17T14:12:41.215Z,0.67
2022-09-17T14:15:34.877Z,0.60
2022-09-17T14:35:40.675Z,0.90
2022-09-17T14:38:15.180Z,1.00
2022-09-17T14:40:46.252Z,0.70
2022-09-17T14:43:20.875Z,0.60
2022-09-17T14:45:52.914Z,0.80
2022-09-17T14:48:27.722Z,0.80
2022-09-17T14:51:23.184Z,0.70
2022-09-17T14:54:10.072Z,0.70
2022-09-17T14:59:23.871Z,0.73
2022-09-17T15:01:52.214Z,0.77
2022-09-17T15:04:23.862Z,0.70
2022-09-17T15:06:53.644Z,0.80
2022-09-17T15:09:25.654Z,0.90
2022-09-17T15:11:55.881Z,0.73
2022-09-17T15:14:28.666Z,0.80
2022-09-17T15:16:58.990Z,0.70
2022-09-17T15:19:31.187Z,0.80
2022-09-17T15:22:03.973Z,0.70
2022-09-17T15:27:09.699Z,1.10
2022-09-17T15:29:39.138Z,0.77
2022-09-17T15:32:07.592Z,0.90
2022-09-17T15:34:35.474Z,0.83
2022-09-17T15:37:17.198Z,0.90
2022-09-17T15:39:51.099Z,0.90
2022-09-17T15:42:22.428Z,0.90
2022-09-17T15:44:51.103Z,0.93
2022-09-17T15:47:49.820Z,0.80
2022-09-17T15:52:48.665Z,0.90
2022-09-17T15:55:37.081Z,0.90
2022-09-17T15:58:20.236Z,0.90
2022-09-17T16:06:37.977Z,0.93
